createdAt,value
2023-05-19T00:02:58.506Z,2.30
2023-05-19T00:09:10.311Z,3.30
2023-05-19T00:12:16.351Z,3.05
2023-05-19T00:15:22.582Z,2.25
2023-05-19T00:18:33.909Z,2.97
2023-05-19T00:24:44.715Z,3.08
2023-05-19T00:27:50.101Z,2.60
2023-05-19T00:30:55.928Z,3.22
2023-05-19T00:34:04.086Z,2.03
2023-05-19T00:37:09.561Z,2.05
2023-05-19T00:40:15.262Z,3.60
2023-05-19T00:43:20.448Z,4.15
2023-05-19T00:46:26.019Z,2.53
2023-05-19T00:49:34.076Z,3.45
2023-05-19T00:52:39.662Z,1.30
2023-05-19T00:55:45.911Z,1.85
2023-05-19T00:58:51.529Z,1.20
2023-05-19T01:01:56.961Z,2.60
2023-05-19T01:05:07.568Z,3.83
2023-05-19T01:08:12.792Z,1.63
2023-05-19T01:11:18.450Z,0.90
2023-05-19T01:14:23.793Z,0.93
2023-05-19T01:17:34.829Z,2.95
2023-05-19T01:20:46.714Z,1.20
2023-05-19T01:23:57.593Z,0.73
2023-05-19T01:27:12.608Z,2.80
2023-05-19T01:30:36.969Z,1.88
2023-05-19T01:33:44.428Z,3.97
2023-05-19T01:36:50.699Z,4.43
2023-05-19T01:39:56.558Z,4.72
2023-05-19T01:43:03.489Z,3.72
2023-05-19T01:46:13.525Z,5.43
2023-05-19T01:49:19.266Z,3.88
2023-05-19T01:52:24.725Z,4.60
2023-05-19T01:55:30.202Z,5.22
2023-05-19T01:58:44.137Z,5.68
2023-05-19T02:01:55.203Z,6.20
2023-05-19T02:05:03.036Z,4.53
2023-05-19T02:08:14.928Z,13.50
2023-05-19T02:11:23.484Z,5.13
2023-05-19T02:14:32.904Z,3.80
2023-05-19T02:17:48.116Z,7.85
2023-05-19T02:21:13.866Z,5.68
2023-05-19T02:24:20.512Z,3.85
2023-05-19T02:27:26.694Z,7.25
2023-05-19T02:30:32.561Z,6.55
2023-05-19T02:33:43.357Z,3.92
2023-05-19T02:36:50.415Z,5.15
2023-05-19T02:39:56.116Z,3.58
2023-05-19T02:43:02.103Z,4.43
2023-05-19T02:46:07.683Z,7.07
2023-05-19T02:49:17.038Z,6.50
2023-05-19T02:52:22.591Z,4.25
2023-05-19T02:55:28.351Z,5.85
2023-05-19T02:58:33.786Z,5.28
2023-05-19T03:01:40.791Z,3.95
2023-05-19T03:04:48.940Z,6.68
2023-05-19T03:07:54.217Z,5.93
2023-05-19T03:10:59.818Z,5.07
2023-05-19T03:14:05.543Z,6.55
2023-05-19T03:17:11.011Z,4.68
2023-05-19T03:20:19.380Z,4.15
2023-05-19T03:23:25.150Z,5.95
2023-05-19T03:26:30.835Z,7.15
2023-05-19T03:29:36.867Z,4.85
2023-05-19T03:32:42.355Z,6.78
2023-05-19T03:35:50.760Z,6.45
2023-05-19T03:42:01.677Z,4.85
2023-05-19T03:45:07.254Z,6.05
2023-05-19T03:48:13.143Z,6.53
2023-05-19T03:51:47.341Z,10.48
2023-05-19T03:55:16.872Z,5.40
2023-05-19T03:58:22.182Z,6.50
2023-05-19T04:01:27.533Z,9.63
2023-05-19T04:04:32.988Z,5.65
2023-05-19T04:07:41.785Z,5.85
2023-05-19T04:10:47.431Z,7.18
2023-05-19T04:13:53.156Z,10.75
2023-05-19T04:16:58.721Z,7.53
2023-05-19T04:20:06.402Z,8.10
2023-05-19T04:23:14.544Z,10.02
2023-05-19T04:26:22.971Z,8.43
2023-05-19T04:29:29.864Z,8.90
2023-05-19T04:32:35.425Z,7.70
2023-05-19T04:35:41.254Z,7.15
2023-05-19T04:38:55.325Z,7.07
2023-05-19T04:42:04.057Z,9.70
2023-05-19T04:45:12.900Z,8.75
2023-05-19T04:48:22.028Z,9.68
2023-05-19T04:51:30.301Z,8.93
2023-05-19T04:54:42.217Z,8.95
2023-05-19T04:57:51.744Z,7.28
2023-05-19T05:00:58.907Z,8.73
2023-05-19T05:04:04.469Z,8.35
2023-05-19T05:07:10.008Z,10.57
2023-05-19T05:10:19.321Z,8.95
2023-05-19T05:13:25.996Z,8.90
2023-05-19T05:16:32.441Z,9.85
2023-05-19T05:19:38.550Z,8.43
2023-05-19T05:22:45.153Z,10.77
2023-05-19T05:25:54.709Z,10.15
2023-05-19T05:29:00.878Z,11.48
2023-05-19T05:32:08.360Z,10.65
2023-05-19T05:35:14.527Z,11.07
2023-05-19T05:38:20.121Z,11.30
2023-05-19T05:41:29.737Z,12.52
2023-05-19T05:44:36.397Z,12.38
2023-05-19T05:47:43.744Z,13.45
2023-05-19T05:50:50.528Z,12.52
2023-05-19T05:54:00.806Z,13.95
2023-05-19T05:57:16.719Z,13.77
2023-05-19T06:00:23.393Z,14.82
2023-05-19T06:06:42.035Z,17.42
2023-05-19T06:09:48.106Z,15.43
2023-05-19T06:12:56.596Z,12.50
2023-05-19T06:19:16.925Z,12.55
2023-05-19T06:22:23.092Z,14.38
2023-05-19T06:25:28.517Z,16.10
2023-05-19T06:28:37.530Z,20.33
2023-05-19T06:31:43.828Z,13.50
2023-05-19T06:34:54.901Z,14.02
2023-05-19T06:38:00.536Z,14.40
2023-05-19T06:41:06.378Z,13.13
2023-05-19T06:44:14.435Z,13.90
2023-05-19T06:47:23.705Z,15.30
2023-05-19T06:50:30.432Z,13.45
2023-05-19T06:53:36.583Z,13.35
2023-05-19T06:56:45.929Z,14.02
2023-05-19T06:59:55.510Z,14.93
2023-05-19T07:03:02.431Z,14.60
2023-05-19T07:06:08.509Z,14.25
2023-05-19T07:09:15.054Z,13.07
2023-05-19T07:12:21.278Z,14.38
2023-05-19T07:15:29.485Z,16.42
2023-05-19T07:18:35.821Z,12.98
2023-05-19T07:21:42.725Z,13.82
2023-05-19T07:24:48.505Z,15.23
2023-05-19T07:27:55.295Z,13.48
2023-05-19T07:31:03.450Z,11.48
2023-05-19T07:34:09.167Z,14.43
2023-05-19T07:37:14.751Z,12.48
2023-05-19T07:40:19.958Z,12.90
2023-05-19T07:43:26.400Z,10.18
2023-05-19T07:46:34.345Z,11.35
2023-05-19T07:49:40.572Z,11.70
2023-05-19T07:52:46.160Z,11.27
2023-05-19T07:55:52.183Z,8.32
2023-05-19T07:58:57.466Z,7.68
2023-05-19T08:02:05.649Z,7.75
2023-05-19T08:05:12.062Z,8.18
2023-05-19T08:08:20.141Z,6.90
2023-05-19T08:11:25.335Z,6.45
2023-05-19T08:14:31.799Z,9.32
2023-05-19T08:17:39.620Z,8.88
2023-05-19T08:20:46.836Z,10.27
2023-05-19T08:23:52.371Z,10.13
2023-05-19T08:26:57.574Z,8.05
2023-05-19T08:30:02.994Z,6.47
2023-05-19T08:33:12.102Z,6.55
2023-05-19T08:36:18.037Z,9.85
2023-05-19T08:39:26.999Z,5.53
2023-05-19T08:42:33.285Z,7.35
2023-05-19T08:45:39.077Z,7.53
2023-05-19T08:48:48.005Z,13.05
2023-05-19T08:51:56.962Z,7.38
2023-05-19T08:55:07.205Z,5.05
2023-05-19T08:58:13.150Z,6.28
2023-05-19T09:01:19.212Z,5.97
2023-05-19T09:04:30.195Z,6.32
2023-05-19T09:07:38.171Z,6.10
2023-05-19T09:10:43.589Z,6.20
2023-05-19T09:13:49.917Z,5.55
2023-05-19T09:16:55.391Z,7.20
2023-05-19T09:20:05.097Z,5.18
2023-05-19T09:23:10.940Z,7.50
2023-05-19T09:26:18.736Z,5.50
2023-05-19T09:29:24.259Z,4.00
2023-05-19T09:32:29.866Z,3.67
2023-05-19T09:35:38.089Z,4.15
2023-05-19T09:38:43.862Z,5.13
2023-05-19T09:41:49.857Z,3.92
2023-05-19T09:45:01.907Z,6.40
2023-05-19T09:48:13.256Z,7.78
2023-05-19T09:51:21.737Z,4.40
2023-05-19T09:54:28.973Z,4.70
2023-05-19T09:57:37.335Z,6.00
2023-05-19T10:00:43.223Z,2.97
2023-05-19T10:03:48.787Z,3.60
2023-05-19T10:07:00.290Z,4.45
2023-05-19T10:10:07.420Z,4.38
2023-05-19T10:13:13.281Z,5.32
2023-05-19T10:16:19.422Z,5.80
2023-05-19T10:19:25.809Z,4.57
2023-05-19T10:22:34.442Z,7.03
2023-05-19T10:25:40.220Z,4.75
2023-05-19T10:28:46.402Z,5.32
2023-05-19T10:31:53.863Z,6.68
2023-05-19T10:35:16.927Z,7.00
2023-05-19T10:38:30.584Z,7.47
2023-05-19T10:41:40.714Z,5.75
2023-05-19T10:44:52.269Z,4.32
2023-05-19T10:47:57.969Z,5.25
2023-05-19T10:51:03.810Z,4.75
2023-05-19T10:54:16.372Z,4.03
2023-05-19T10:57:23.497Z,3.75
2023-05-19T11:00:32.731Z,5.47
2023-05-19T11:03:47.899Z,4.70
2023-05-19T11:06:54.315Z,3.10
2023-05-19T11:10:02.297Z,5.50
2023-05-19T11:13:09.167Z,6.22
2023-05-19T11:16:14.811Z,2.85
2023-05-19T11:19:23.786Z,4.03
2023-05-19T11:22:29.914Z,7.57
2023-05-19T11:25:47.908Z,3.45
2023-05-19T11:28:54.434Z,3.10
2023-05-19T11:32:00.022Z,4.28
2023-05-19T11:35:05.636Z,1.70
2023-05-19T11:38:12.432Z,3.25
2023-05-19T11:41:21.887Z,1.70
2023-05-19T11:44:27.299Z,7.28
2023-05-19T11:47:46.467Z,4.97
2023-05-19T11:50:57.274Z,2.30
2023-05-19T11:54:02.926Z,2.95
2023-05-19T11:57:11.702Z,5.75
2023-05-19T12:00:17.823Z,3.63
2023-05-19T12:03:28.767Z,3.20
2023-05-19T12:06:34.723Z,2.95
2023-05-19T12:09:40.203Z,2.90
2023-05-19T12:12:50.079Z,4.13
2023-05-19T12:15:56.348Z,2.80
2023-05-19T12:19:01.800Z,3.83
2023-05-19T12:22:07.374Z,3.78
2023-05-19T12:25:13.106Z,3.60
2023-05-19T12:28:22.521Z,5.82
2023-05-19T12:31:28.048Z,3.72
2023-05-19T12:34:33.748Z,2.65
2023-05-19T12:37:40.346Z,2.38
2023-05-19T12:40:46.583Z,7.35
2023-05-19T12:43:54.663Z,6.18
2023-05-19T12:47:00.956Z,3.92
2023-05-19T12:50:08.245Z,4.25
2023-05-19T12:53:14.757Z,3.20
2023-05-19T12:56:20.270Z,2.80
2023-05-19T12:59:38.289Z,7.28
2023-05-19T13:02:58.864Z,10.63
2023-05-19T13:06:04.110Z,3.33
2023-05-19T13:09:10.569Z,3.45
2023-05-19T13:12:15.750Z,2.92
2023-05-19T13:15:24.016Z,5.85
2023-05-19T13:18:32.413Z,2.45
2023-05-19T13:21:37.822Z,2.17
2023-05-19T13:24:42.981Z,4.38
2023-05-19T13:27:49.221Z,2.45
2023-05-19T13:30:57.402Z,2.50
2023-05-19T13:34:02.904Z,4.18
2023-05-19T13:37:10.061Z,3.17
2023-05-19T13:40:16.844Z,4.90
2023-05-19T13:43:22.237Z,3.85
2023-05-19T13:46:44.014Z,3.33
2023-05-19T13:49:50.219Z,2.78
2023-05-19T13:52:55.923Z,11.38
2023-05-19T13:56:03.137Z,4.00
2023-05-19T13:59:08.957Z,3.03
2023-05-19T14:02:17.299Z,5.97
2023-05-19T14:05:23.435Z,4.82
2023-05-19T14:08:28.730Z,2.40
2023-05-19T14:11:34.417Z,2.58
2023-05-19T14:14:39.800Z,4.10
2023-05-19T14:17:49.353Z,4.78
2023-05-19T14:20:54.795Z,5.35
2023-05-19T14:24:00.368Z,4.35
2023-05-19T14:27:05.739Z,3.92
2023-05-19T14:30:11.789Z,3.05
2023-05-19T14:33:20.142Z,6.55
2023-05-19T14:36:25.409Z,3.13
2023-05-19T14:39:30.578Z,2.22
2023-05-19T14:42:36.214Z,5.10
2023-05-19T14:45:42.309Z,3.92
2023-05-19T14:48:50.519Z,2.50
2023-05-19T14:55:01.636Z,5.32
2023-05-19T14:58:19.982Z,5.85
2023-05-19T15:01:33.638Z,3.00
2023-05-19T15:04:41.727Z,3.92
2023-05-19T15:10:52.343Z,5.15
2023-05-19T15:13:57.547Z,3.92
2023-05-19T15:17:03.125Z,3.50
2023-05-19T15:20:11.663Z,4.57
2023-05-19T15:23:17.136Z,4.43
2023-05-19T15:26:22.702Z,5.40
2023-05-19T15:29:28.330Z,4.28
2023-05-19T15:32:34.134Z,3.92
2023-05-19T15:35:43.004Z,12.95
2023-05-19T15:41:53.779Z,4.95
2023-05-19T15:44:59.253Z,7.53
2023-05-19T15:48:04.784Z,5.32
2023-05-19T15:51:13.137Z,5.82
2023-05-19T15:54:19.034Z,3.08
2023-05-19T15:57:24.260Z,4.15
2023-05-19T16:00:33.108Z,4.55
2023-05-19T16:03:41.470Z,3.08
2023-05-19T16:06:49.535Z,6.85
2023-05-19T16:09:55.252Z,4.05
2023-05-19T16:13:00.814Z,4.88
2023-05-19T16:16:06.554Z,2.95
2023-05-19T16:19:11.843Z,6.38
2023-05-19T16:22:21.783Z,3.35
2023-05-19T16:25:28.028Z,3.60
2023-05-19T16:28:33.556Z,4.53
2023-05-19T16:31:38.990Z,6.90
2023-05-19T16:34:44.601Z,2.63
2023-05-19T16:37:52.517Z,3.28
2023-05-19T16:40:58.052Z,3.65
2023-05-19T16:44:03.552Z,3.08
2023-05-19T16:47:08.913Z,4.47
2023-05-19T16:50:14.952Z,3.05
2023-05-19T16:53:23.210Z,7.30
2023-05-19T16:56:28.934Z,5.80
2023-05-19T16:59:34.495Z,7.43
2023-05-19T17:02:40.150Z,6.22
2023-05-19T17:05:46.143Z,5.93
2023-05-19T17:08:54.281Z,4.30
2023-05-19T17:12:01.167Z,6.50
2023-05-19T17:15:06.887Z,6.80
2023-05-19T17:18:12.890Z,1.98
2023-05-19T17:21:18.465Z,2.75
2023-05-19T17:24:26.510Z,9.00
2023-05-19T17:27:31.958Z,6.68
2023-05-19T17:30:37.919Z,2.92
2023-05-19T17:33:43.903Z,5.20
2023-05-19T17:36:49.961Z,6.55
2023-05-19T17:39:58.408Z,8.63
2023-05-19T17:43:03.761Z,7.32
2023-05-19T17:46:09.406Z,6.25
2023-05-19T17:49:15.667Z,6.57
2023-05-19T17:52:22.180Z,4.38
2023-05-19T17:55:31.720Z,4.45
2023-05-19T17:58:37.623Z,3.17
2023-05-19T18:01:43.809Z,3.92
2023-05-19T18:04:49.662Z,4.13
2023-05-19T18:07:56.755Z,7.80
2023-05-19T18:11:05.392Z,4.72
2023-05-19T18:14:10.924Z,4.30
2023-05-19T18:17:16.213Z,3.67
2023-05-19T18:20:21.732Z,5.32
2023-05-19T18:23:27.469Z,5.93
2023-05-19T18:26:38.063Z,7.57
2023-05-19T18:29:43.432Z,4.88
2023-05-19T18:32:48.905Z,5.97
2023-05-19T18:35:54.759Z,7.50
2023-05-19T18:39:02.153Z,7.30
2023-05-19T18:42:10.390Z,5.68
2023-05-19T18:45:16.114Z,6.25
2023-05-19T18:48:23.019Z,3.05
2023-05-19T18:51:28.496Z,2.55
2023-05-19T18:54:34.060Z,5.43
2023-05-19T18:57:42.331Z,5.07
2023-05-19T19:00:47.718Z,3.75
2023-05-19T19:03:53.124Z,2.65
2023-05-19T19:06:58.607Z,4.65
2023-05-19T19:10:04.011Z,8.05
2023-05-19T19:13:12.474Z,5.55
2023-05-19T19:16:17.841Z,3.88
2023-05-19T19:19:24.245Z,6.07
2023-05-19T19:22:31.017Z,4.35
2023-05-19T19:25:36.788Z,7.45
2023-05-19T19:28:45.835Z,9.65
2023-05-19T19:31:51.573Z,4.45
2023-05-19T19:34:57.299Z,7.00
2023-05-19T19:38:02.753Z,5.80
2023-05-19T19:41:08.168Z,5.03
2023-05-19T19:44:16.698Z,3.60
2023-05-19T19:50:27.375Z,5.57
2023-05-19T19:53:33.052Z,5.20
2023-05-19T19:56:38.310Z,5.35
2023-05-19T19:59:46.432Z,8.02
2023-05-19T20:03:04.435Z,7.03
2023-05-19T20:06:10.980Z,3.30
2023-05-19T20:09:16.365Z,2.67
2023-05-19T20:12:21.912Z,5.05
2023-05-19T20:15:30.142Z,5.72
2023-05-19T20:18:35.725Z,6.18
2023-05-19T20:21:41.457Z,4.05
2023-05-19T20:24:46.963Z,2.83
2023-05-19T20:27:52.605Z,4.00
2023-05-19T20:31:00.678Z,5.38
2023-05-19T20:34:06.903Z,2.70
2023-05-19T20:37:12.134Z,2.78
2023-05-19T20:40:17.443Z,2.40
2023-05-19T20:43:23.237Z,3.72
2023-05-19T20:46:31.733Z,8.60
2023-05-19T20:52:42.391Z,5.65
2023-05-19T20:55:47.661Z,3.00
2023-05-19T20:58:53.197Z,5.07
2023-05-19T21:02:01.502Z,8.63
2023-05-19T21:05:07.654Z,4.85
2023-05-19T21:08:13.303Z,6.05
2023-05-19T21:11:18.755Z,3.35
2023-05-19T21:14:25.615Z,6.60
2023-05-19T21:17:34.138Z,4.57
2023-05-19T21:20:39.669Z,8.13
2023-05-19T21:23:44.990Z,6.22
2023-05-19T21:26:51.580Z,1.95
2023-05-19T21:29:57.321Z,4.60
2023-05-19T21:33:05.500Z,5.18
2023-05-19T21:36:11.344Z,3.75
2023-05-19T21:39:16.804Z,6.22
2023-05-19T21:42:22.176Z,5.53
2023-05-19T21:45:27.630Z,3.80
2023-05-19T21:48:35.495Z,4.85
2023-05-19T21:51:41.145Z,6.40
2023-05-19T21:54:46.636Z,3.05
2023-05-19T21:57:52.016Z,2.88
2023-05-19T22:00:57.665Z,3.83
2023-05-19T22:04:05.577Z,3.95
2023-05-19T22:07:11.237Z,5.07
2023-05-19T22:10:16.517Z,12.50
2023-05-19T22:13:22.393Z,4.95
2023-05-19T22:16:27.889Z,13.55
2023-05-19T22:19:36.251Z,6.10
2023-05-19T22:22:41.795Z,4.95
2023-05-19T22:25:47.288Z,5.03
2023-05-19T22:28:52.950Z,2.85
2023-05-19T22:31:58.448Z,3.92
2023-05-19T22:35:07.086Z,3.03
2023-05-19T22:38:12.693Z,4.85
2023-05-19T22:41:18.431Z,6.43
2023-05-19T22:44:23.824Z,4.40
2023-05-19T22:47:30.145Z,2.50
2023-05-19T22:50:38.011Z,3.47
2023-05-19T22:53:45.169Z,6.47
2023-05-19T22:56:51.002Z,4.32
2023-05-19T22:59:56.620Z,5.20
2023-05-19T23:03:01.981Z,3.60
2023-05-19T23:06:10.181Z,1.98
2023-05-19T23:09:16.305Z,5.40
2023-05-19T23:12:21.672Z,3.50
2023-05-19T23:15:27.173Z,7.38
2023-05-19T23:18:32.662Z,1.85
2023-05-19T23:21:40.547Z,2.63
2023-05-19T23:24:46.108Z,4.60
2023-05-19T23:27:51.787Z,4.25
2023-05-19T23:30:57.597Z,2.03
2023-05-19T23:34:03.154Z,2.63
2023-05-19T23:37:12.072Z,1.48
2023-05-19T23:40:17.854Z,1.67
2023-05-19T23:43:23.110Z,4.72
2023-05-19T23:46:28.976Z,2.55
2023-05-19T23:49:34.430Z,2.97
2023-05-19T23:52:42.346Z,4.30
2023-05-19T23:55:47.898Z,2.03
2023-05-19T23:58:53.577Z,3.95
